sensor_id;sensor_type;location;lat;lon;timestamp;pressure;altitude;pressure_sealevel;temperature;humidity
22582;BME280;47125;48.542;9.052;2023-05-22T00:02:08;95679.91;;;17.91;71.74
22582;BME280;47125;48.542;9.052;2023-05-22T00:12:12;95672.22;;;17.80;72.14
22582;BME280;47125;48.542;9.052;2023-05-22T00:22:15;95665.00;;;17.75;72.17
22582;BME280;47125;48.542;9.052;2023-05-22T00:32:19;95668.31;;;17.67;72.25
22582;BME280;47125;48.542;9.052;2023-05-22T00:42:22;95666.16;;;17.69;71.73
22582;BME280;47125;48.542;9.052;2023-05-22T00:52:25;95665.19;;;17.36;73.74
22582;BME280;47125;48.542;9.052;2023-05-22T01:02:28;95667.06;;;17.12;75.66
22582;BME280;47125;48.542;9.052;2023-05-22T01:12:37;95675.16;;;16.83;76.58
22582;BME280;47125;48.542;9.052;2023-05-22T01:22:57;95682.84;;;17.00;75.54
22582;BME280;47125;48.542;9.052;2023-05-22T01:33:04;95692.56;;;16.96;76.20
22582;BME280;47125;48.542;9.052;2023-05-22T01:43:08;95689.88;;;16.96;75.25
22582;BME280;47125;48.542;9.052;2023-05-22T01:53:14;95684.41;;;17.06;73.80
22582;BME280;47125;48.542;9.052;2023-05-22T02:03:20;95693.06;;;17.03;74.02
22582;BME280;47125;48.542;9.052;2023-05-22T02:13:25;95694.97;;;16.97;74.81
22582;BME280;47125;48.542;9.052;2023-05-22T02:23:27;95690.00;;;17.09;75.25
22582;BME280;47125;48.542;9.052;2023-05-22T02:33:31;95684.88;;;16.84;76.28
22582;BME280;47125;48.542;9.052;2023-05-22T02:43:34;95698.72;;;17.01;75.54
22582;BME280;47125;48.542;9.052;2023-05-22T02:53:38;95708.41;;;16.74;76.64
22582;BME280;47125;48.542;9.052;2023-05-22T03:03:41;95718.53;;;16.58;77.44
22582;BME280;47125;48.542;9.052;2023-05-22T03:13:45;95714.31;;;16.42;77.54
22582;BME280;47125;48.542;9.052;2023-05-22T03:23:48;95713.94;;;16.53;77.09
22582;BME280;47125;48.542;9.052;2023-05-22T03:33:51;95716.91;;;16.57;76.85
22582;BME280;47125;48.542;9.052;2023-05-22T03:43:54;95706.63;;;16.93;75.07
22582;BME280;47125;48.542;9.052;2023-05-22T03:53:58;95701.94;;;17.03;74.39
22582;BME280;47125;48.542;9.052;2023-05-22T04:04:01;95690.84;;;16.81;76.11
22582;BME280;47125;48.542;9.052;2023-05-22T04:14:07;95698.81;;;16.91;74.71
22582;BME280;47125;48.542;9.052;2023-05-22T04:24:09;95702.31;;;16.92;74.32
22582;BME280;47125;48.542;9.052;2023-05-22T04:34:15;95709.56;;;16.96;74.98
22582;BME280;47125;48.542;9.052;2023-05-22T04:44:18;95708.75;;;16.23;78.49
22582;BME280;47125;48.542;9.052;2023-05-22T04:54:24;95730.28;;;15.74;81.31
22582;BME280;47125;48.542;9.052;2023-05-22T05:04:27;95736.09;;;16.02;80.16
22582;BME280;47125;48.542;9.052;2023-05-22T05:14:30;95718.97;;;16.26;79.15
22582;BME280;47125;48.542;9.052;2023-05-22T05:24:33;95730.16;;;16.48;77.96
22582;BME280;47125;48.542;9.052;2023-05-22T05:34:37;95728.72;;;16.95;74.99
22582;BME280;47125;48.542;9.052;2023-05-22T05:44:40;95736.69;;;16.81;76.24
22582;BME280;47125;48.542;9.052;2023-05-22T05:54:43;95751.50;;;17.13;76.96
22582;BME280;47125;48.542;9.052;2023-05-22T06:04:47;95762.16;;;16.65;79.35
22582;BME280;47125;48.542;9.052;2023-05-22T06:14:51;95761.13;;;17.24;76.57
22582;BME280;47125;48.542;9.052;2023-05-22T06:24:54;95770.66;;;17.40;75.55
22582;BME280;47125;48.542;9.052;2023-05-22T06:34:58;95765.63;;;17.62;74.88
22582;BME280;47125;48.542;9.052;2023-05-22T06:45:01;95771.34;;;17.79;75.75
22582;BME280;47125;48.542;9.052;2023-05-22T06:55:05;95782.53;;;17.96;75.37
22582;BME280;47125;48.542;9.052;2023-05-22T07:05:08;95782.53;;;18.15;75.55
22582;BME280;47125;48.542;9.052;2023-05-22T07:15:12;95790.69;;;18.34;74.84
22582;BME280;47125;48.542;9.052;2023-05-22T07:25:15;95796.94;;;18.53;75.48
22582;BME280;47125;48.542;9.052;2023-05-22T07:35:18;95800.16;;;18.74;71.96
22582;BME280;47125;48.542;9.052;2023-05-22T07:45:21;95794.75;;;18.74;70.35
22582;BME280;47125;48.542;9.052;2023-05-22T07:55:25;95794.31;;;19.17;68.84
22582;BME280;47125;48.542;9.052;2023-05-22T08:05:27;95799.84;;;19.45;69.08
22582;BME280;47125;48.542;9.052;2023-05-22T08:15:31;95800.03;;;20.08;69.87
22582;BME280;47125;48.542;9.052;2023-05-22T08:25:34;95801.56;;;20.27;70.05
22582;BME280;47125;48.542;9.052;2023-05-22T08:35:38;95789.66;;;20.37;70.15
22582;BME280;47125;48.542;9.052;2023-05-22T08:45:41;95780.25;;;20.70;69.21
22582;BME280;47125;48.542;9.052;2023-05-22T08:55:45;95790.06;;;20.58;70.56
22582;BME280;47125;48.542;9.052;2023-05-22T09:05:48;95779.41;;;20.83;69.53
22582;BME280;47125;48.542;9.052;2023-05-22T09:15:54;95779.88;;;20.99;69.10
22582;BME280;47125;48.542;9.052;2023-05-22T09:25:59;95772.47;;;21.35;67.48
22582;BME280;47125;48.542;9.052;2023-05-22T09:36:04;95773.97;;;21.41;68.26
22582;BME280;47125;48.542;9.052;2023-05-22T09:46:09;95763.34;;;21.62;66.75
22582;BME280;47125;48.542;9.052;2023-05-22T09:56:18;95783.09;;;21.76;64.56
22582;BME280;47125;48.542;9.052;2023-05-22T10:06:38;95773.00;;;22.08;64.33
22582;BME280;47125;48.542;9.052;2023-05-22T10:16:43;95771.19;;;22.60;62.60
22582;BME280;47125;48.542;9.052;2023-05-22T10:26:46;95761.59;;;23.31;62.17
22582;BME280;47125;48.542;9.052;2023-05-22T10:36:53;95756.50;;;23.12;60.70
22582;BME280;47125;48.542;9.052;2023-05-22T10:47:14;95746.47;;;23.59;59.35
22582;BME280;47125;48.542;9.052;2023-05-22T10:57:18;95736.31;;;23.77;59.01
22582;BME280;47125;48.542;9.052;2023-05-22T11:07:21;95731.56;;;24.32;59.14
22582;BME280;47125;48.542;9.052;2023-05-22T11:17:26;95716.91;;;24.87;57.76
22582;BME280;47125;48.542;9.052;2023-05-22T11:27:29;95710.91;;;24.93;49.92
22582;BME280;47125;48.542;9.052;2023-05-22T11:37:33;95688.25;;;25.26;52.56
22582;BME280;47125;48.542;9.052;2023-05-22T11:47:39;95678.09;;;25.59;50.72
22582;BME280;47125;48.542;9.052;2023-05-22T11:57:43;95679.22;;;26.06;49.13
22582;BME280;47125;48.542;9.052;2023-05-22T12:07:47;95678.78;;;25.68;46.55
22582;BME280;47125;48.542;9.052;2023-05-22T12:17:53;95671.63;;;24.77;48.09
22582;BME280;47125;48.542;9.052;2023-05-22T12:27:55;95681.84;;;24.27;50.85
22582;BME280;47125;48.542;9.052;2023-05-22T12:37:59;95681.13;;;24.09;49.28
22582;BME280;47125;48.542;9.052;2023-05-22T12:48:01;95673.41;;;23.82;49.79
22582;BME280;47125;48.542;9.052;2023-05-22T12:58:06;95680.78;;;23.52;52.59
22582;BME280;47125;48.542;9.052;2023-05-22T13:08:08;95677.50;;;23.96;58.24
22582;BME280;47125;48.542;9.052;2023-05-22T13:18:12;95689.88;;;25.06;51.14
22582;BME280;47125;48.542;9.052;2023-05-22T13:28:14;95683.31;;;25.52;52.06
22582;BME280;47125;48.542;9.052;2023-05-22T13:38:18;95702.56;;;24.69;61.75
22582;BME280;47125;48.542;9.052;2023-05-22T13:48:21;95707.38;;;23.46;60.80
22582;BME280;47125;48.542;9.052;2023-05-22T13:58:24;95725.72;;;23.12;60.16
22582;BME280;47125;48.542;9.052;2023-05-22T14:08:27;95755.47;;;22.48;60.20
22582;BME280;47125;48.542;9.052;2023-05-22T14:18:31;95763.28;;;22.24;65.81
22582;BME280;47125;48.542;9.052;2023-05-22T14:28:33;95761.22;;;20.84;70.79
22582;BME280;47125;48.542;9.052;2023-05-22T14:38:37;95764.75;;;20.84;76.83
22582;BME280;47125;48.542;9.052;2023-05-22T14:48:40;95779.44;;;21.06;75.87
22582;BME280;47125;48.542;9.052;2023-05-22T14:58:43;95764.56;;;20.67;76.31
22582;BME280;47125;48.542;9.052;2023-05-22T15:08:46;95750.94;;;20.59;76.70
22582;BME280;47125;48.542;9.052;2023-05-22T15:18:50;95716.16;;;20.39;81.47
22582;BME280;47125;48.542;9.052;2023-05-22T15:28:53;95722.16;;;20.22;79.46
22582;BME280;47125;48.542;9.052;2023-05-22T15:39:02;95716.47;;;20.10;83.33
22582;BME280;47125;48.542;9.052;2023-05-22T15:49:05;95699.78;;;20.16;85.84
22582;BME280;47125;48.542;9.052;2023-05-22T15:59:09;95665.94;;;20.14;87.05
22582;BME280;47125;48.542;9.052;2023-05-22T16:09:11;95688.44;;;20.14;86.45
22582;BME280;47125;48.542;9.052;2023-05-22T16:19:17;95714.03;;;20.22;88.10
22582;BME280;47125;48.542;9.052;2023-05-22T16:29:20;95730.81;;;20.24;88.56
22582;BME280;47125;48.542;9.052;2023-05-22T16:39:24;95730.22;;;20.13;80.77
22582;BME280;47125;48.542;9.052;2023-05-22T16:49:27;95706.41;;;20.24;78.97
22582;BME280;47125;48.542;9.052;2023-05-22T16:59:31;95677.66;;;20.01;81.11
22582;BME280;47125;48.542;9.052;2023-05-22T17:09:33;95704.59;;;20.19;83.87
22582;BME280;47125;48.542;9.052;2023-05-22T17:19:37;95711.16;;;20.05;87.00
22582;BME280;47125;48.542;9.052;2023-05-22T17:29:40;95729.03;;;20.06;85.93
22582;BME280;47125;48.542;9.052;2023-05-22T17:39:44;95735.44;;;20.10;85.14
22582;BME280;47125;48.542;9.052;2023-05-22T17:49:46;95728.03;;;20.02;85.28
22582;BME280;47125;48.542;9.052;2023-05-22T17:59:50;95743.28;;;20.11;84.66
22582;BME280;47125;48.542;9.052;2023-05-22T18:09:52;95760.34;;;20.12;84.88
22582;BME280;47125;48.542;9.052;2023-05-22T18:19:56;95776.91;;;20.10;84.91
22582;BME280;47125;48.542;9.052;2023-05-22T18:29:59;95755.63;;;20.04;84.43
22582;BME280;47125;48.542;9.052;2023-05-22T18:40:03;95752.03;;;19.95;85.11
22582;BME280;47125;48.542;9.052;2023-05-22T18:50:06;95757.16;;;19.96;86.32
22582;BME280;47125;48.542;9.052;2023-05-22T19:00:11;95755.66;;;19.76;89.99
22582;BME280;47125;48.542;9.052;2023-05-22T19:10:13;95774.09;;;19.74;89.37
22582;BME280;47125;48.542;9.052;2023-05-22T19:20:17;95794.28;;;19.68;90.22
22582;BME280;47125;48.542;9.052;2023-05-22T19:30:20;95817.13;;;19.62;90.21
22582;BME280;47125;48.542;9.052;2023-05-22T19:40:24;95829.25;;;19.51;91.17
22582;BME280;47125;48.542;9.052;2023-05-22T19:50:26;95814.69;;;19.47;91.14
22582;BME280;47125;48.542;9.052;2023-05-22T20:00:30;95826.44;;;19.43;90.03
22582;BME280;47125;48.542;9.052;2023-05-22T20:10:33;95819.56;;;19.32;89.96
22582;BME280;47125;48.542;9.052;2023-05-22T20:20:37;95827.03;;;19.21;89.63
22582;BME280;47125;48.542;9.052;2023-05-22T20:30:39;95842.94;;;19.09;89.42
22582;BME280;47125;48.542;9.052;2023-05-22T20:40:43;95836.66;;;18.95;89.43
22582;BME280;47125;48.542;9.052;2023-05-22T20:50:47;95840.38;;;18.99;86.67
22582;BME280;47125;48.542;9.052;2023-05-22T21:00:52;95850.31;;;18.85;88.54
22582;BME280;47125;48.542;9.052;2023-05-22T21:10:54;95867.94;;;18.82;87.94
22582;BME280;47125;48.542;9.052;2023-05-22T21:20:58;95870.34;;;18.65;87.72
22582;BME280;47125;48.542;9.052;2023-05-22T21:31:01;95882.63;;;18.57;87.27
22582;BME280;47125;48.542;9.052;2023-05-22T21:41:05;95875.97;;;18.50;87.21
22582;BME280;47125;48.542;9.052;2023-05-22T21:51:08;95883.41;;;18.34;87.78
22582;BME280;47125;48.542;9.052;2023-05-22T22:01:12;95885.38;;;18.29;87.70
22582;BME280;47125;48.542;9.052;2023-05-22T22:11:14;95898.75;;;18.39;85.87
22582;BME280;47125;48.542;9.052;2023-05-22T22:21:18;95901.94;;;18.46;87.68
22582;BME280;47125;48.542;9.052;2023-05-22T22:31:21;95908.72;;;18.43;88.22
22582;BME280;47125;48.542;9.052;2023-05-22T22:41:24;95915.81;;;18.39;87.92
22582;BME280;47125;48.542;9.052;2023-05-22T22:51:27;95908.34;;;18.31;89.02
22582;BME280;47125;48.542;9.052;2023-05-22T23:01:32;95904.41;;;18.18;88.94
22582;BME280;47125;48.542;9.052;2023-05-22T23:11:34;95901.19;;;18.16;88.07
22582;BME280;47125;48.542;9.052;2023-05-22T23:21:39;95909.72;;;18.05;89.62
22582;BME280;47125;48.542;9.052;2023-05-22T23:31:42;95908.59;;;18.06;88.81
22582;BME280;47125;48.542;9.052;2023-05-22T23:41:45;95924.88;;;18.01;89.04
22582;BME280;47125;48.542;9.052;2023-05-22T23:51:48;95922.09;;;18.06;89.19
